sensor_id;sensor_type;location;lat;lon;timestamp;P1;durP1;ratioP1;P2;durP2;ratioP2
22268;SDS011;11303;50.772;19.670;2023-05-18T00:01:29;24.45;;;8.15;;
22268;SDS011;11303;50.772;19.670;2023-05-18T00:03:31;20.95;;;8.32;;
22268;SDS011;11303;50.772;19.670;2023-05-18T00:05:34;22.20;;;8.75;;
22268;SDS011;11303;50.772;19.670;2023-05-18T00:07:35;24.27;;;8.85;;
22268;SDS011;11303;50.772;19.670;2023-05-18T00:09:37;23.98;;;7.97;;
22268;SDS011;11303;50.772;19.670;2023-05-18T00:11:39;19.27;;;8.05;;
22268;SDS011;11303;50.772;19.670;2023-05-18T00:13:41;21.00;;;6.40;;
22268;SDS011;11303;50.772;19.670;2023-05-18T00:15:43;25.92;;;8.30;;
22268;SDS011;11303;50.772;19.670;2023-05-18T00:17:45;19.83;;;8.00;;
22268;SDS011;11303;50.772;19.670;2023-05-18T00:19:46;18.27;;;8.13;;
22268;SDS011;11303;50.772;19.670;2023-05-18T00:21:50;20.73;;;8.13;;
22268;SDS011;11303;50.772;19.670;2023-05-18T00:23:52;16.02;;;5.55;;
22268;SDS011;11303;50.772;19.670;2023-05-18T00:25:55;22.67;;;7.25;;
22268;SDS011;11303;50.772;19.670;2023-05-18T00:27:58;18.52;;;6.80;;
22268;SDS011;11303;50.772;19.670;2023-05-18T00:30:00;20.60;;;7.47;;
22268;SDS011;11303;50.772;19.670;2023-05-18T00:32:01;21.48;;;7.57;;
22268;SDS011;11303;50.772;19.670;2023-05-18T00:34:07;27.42;;;7.72;;
22268;SDS011;11303;50.772;19.670;2023-05-18T00:36:09;18.50;;;7.22;;
22268;SDS011;11303;50.772;19.670;2023-05-18T00:38:12;30.88;;;6.95;;
22268;SDS011;11303;50.772;19.670;2023-05-18T00:40:15;19.20;;;6.40;;
22268;SDS011;11303;50.772;19.670;2023-05-18T00:42:17;9.77;;;4.65;;
22268;SDS011;11303;50.772;19.670;2023-05-18T00:44:19;20.88;;;7.25;;
22268;SDS011;11303;50.772;19.670;2023-05-18T00:46:21;17.50;;;6.40;;
22268;SDS011;11303;50.772;19.670;2023-05-18T00:48:23;17.05;;;5.30;;
22268;SDS011;11303;50.772;19.670;2023-05-18T00:50:25;20.50;;;5.45;;
22268;SDS011;11303;50.772;19.670;2023-05-18T00:52:26;21.38;;;7.15;;
22268;SDS011;11303;50.772;19.670;2023-05-18T00:54:28;16.63;;;7.13;;
22268;SDS011;11303;50.772;19.670;2023-05-18T00:56:30;24.08;;;7.10;;
22268;SDS011;11303;50.772;19.670;2023-05-18T00:58:34;24.60;;;7.28;;
22268;SDS011;11303;50.772;19.670;2023-05-18T01:00:36;12.48;;;4.63;;
22268;SDS011;11303;50.772;19.670;2023-05-18T01:02:39;18.90;;;7.13;;
22268;SDS011;11303;50.772;19.670;2023-05-18T01:04:46;19.63;;;6.57;;
22268;SDS011;11303;50.772;19.670;2023-05-18T01:06:47;29.48;;;10.43;;
22268;SDS011;11303;50.772;19.670;2023-05-18T01:08:49;29.30;;;6.50;;
22268;SDS011;11303;50.772;19.670;2023-05-18T01:10:53;18.85;;;5.28;;
22268;SDS011;11303;50.772;19.670;2023-05-18T01:13:04;20.35;;;5.43;;
22268;SDS011;11303;50.772;19.670;2023-05-18T01:15:21;20.05;;;6.05;;
22268;SDS011;11303;50.772;19.670;2023-05-18T01:17:49;23.70;;;6.13;;
22268;SDS011;11303;50.772;19.670;2023-05-18T01:20:08;23.42;;;7.32;;
22268;SDS011;11303;50.772;19.670;2023-05-18T01:22:19;22.33;;;6.35;;
22268;SDS011;11303;50.772;19.670;2023-05-18T01:24:43;17.13;;;5.80;;
22268;SDS011;11303;50.772;19.670;2023-05-18T01:26:49;16.25;;;5.20;;
22268;SDS011;11303;50.772;19.670;2023-05-18T01:28:58;18.55;;;6.53;;
22268;SDS011;11303;50.772;19.670;2023-05-18T01:31:03;20.90;;;6.90;;
22268;SDS011;11303;50.772;19.670;2023-05-18T01:33:05;29.00;;;7.55;;
22268;SDS011;11303;50.772;19.670;2023-05-18T01:35:09;24.75;;;8.18;;
22268;SDS011;11303;50.772;19.670;2023-05-18T01:37:10;19.20;;;6.40;;
22268;SDS011;11303;50.772;19.670;2023-05-18T01:39:12;18.55;;;6.68;;
22268;SDS011;11303;50.772;19.670;2023-05-18T01:43:22;23.30;;;8.80;;
22268;SDS011;11303;50.772;19.670;2023-05-18T01:45:32;34.60;;;11.55;;
22268;SDS011;11303;50.772;19.670;2023-05-18T01:47:33;16.35;;;6.72;;
22268;SDS011;11303;50.772;19.670;2023-05-18T01:52:05;27.77;;;9.13;;
22268;SDS011;11303;50.772;19.670;2023-05-18T01:54:11;16.73;;;6.15;;
22268;SDS011;11303;50.772;19.670;2023-05-18T01:56:17;18.40;;;8.02;;
22268;SDS011;11303;50.772;19.670;2023-05-18T01:58:21;14.70;;;5.40;;
22268;SDS011;11303;50.772;19.670;2023-05-18T02:00:23;16.23;;;4.78;;
22268;SDS011;11303;50.772;19.670;2023-05-18T02:02:26;31.92;;;9.15;;
22268;SDS011;11303;50.772;19.670;2023-05-18T02:04:28;37.03;;;11.00;;
22268;SDS011;11303;50.772;19.670;2023-05-18T02:06:30;31.33;;;8.45;;
22268;SDS011;11303;50.772;19.670;2023-05-18T02:08:32;27.17;;;7.78;;
22268;SDS011;11303;50.772;19.670;2023-05-18T02:10:33;24.75;;;7.35;;
22268;SDS011;11303;50.772;19.670;2023-05-18T02:12:35;19.60;;;4.90;;
22268;SDS011;11303;50.772;19.670;2023-05-18T02:14:37;24.60;;;6.18;;
22268;SDS011;11303;50.772;19.670;2023-05-18T02:16:39;25.00;;;7.20;;
22268;SDS011;11303;50.772;19.670;2023-05-18T02:18:40;39.70;;;12.25;;
22268;SDS011;11303;50.772;19.670;2023-05-18T02:20:43;25.50;;;8.43;;
22268;SDS011;11303;50.772;19.670;2023-05-18T02:22:44;24.65;;;7.70;;
22268;SDS011;11303;50.772;19.670;2023-05-18T02:24:46;19.40;;;5.07;;
22268;SDS011;11303;50.772;19.670;2023-05-18T02:26:48;11.80;;;4.70;;
22268;SDS011;11303;50.772;19.670;2023-05-18T02:28:49;14.60;;;4.55;;
22268;SDS011;11303;50.772;19.670;2023-05-18T02:30:51;19.17;;;4.15;;
22268;SDS011;11303;50.772;19.670;2023-05-18T02:32:52;9.82;;;3.50;;
22268;SDS011;11303;50.772;19.670;2023-05-18T02:34:55;12.68;;;4.03;;
22268;SDS011;11303;50.772;19.670;2023-05-18T02:36:56;15.77;;;4.32;;
22268;SDS011;11303;50.772;19.670;2023-05-18T02:38:58;13.90;;;5.10;;
22268;SDS011;11303;50.772;19.670;2023-05-18T02:41:00;20.63;;;5.13;;
22268;SDS011;11303;50.772;19.670;2023-05-18T02:43:01;11.70;;;3.22;;
22268;SDS011;11303;50.772;19.670;2023-05-18T02:45:03;21.33;;;6.40;;
22268;SDS011;11303;50.772;19.670;2023-05-18T02:47:05;19.42;;;6.10;;
22268;SDS011;11303;50.772;19.670;2023-05-18T02:49:07;20.80;;;7.18;;
22268;SDS011;11303;50.772;19.670;2023-05-18T02:51:08;21.30;;;7.85;;
22268;SDS011;11303;50.772;19.670;2023-05-18T02:53:10;21.92;;;7.95;;
22268;SDS011;11303;50.772;19.670;2023-05-18T02:55:12;23.98;;;7.75;;
22268;SDS011;11303;50.772;19.670;2023-05-18T02:57:14;25.33;;;7.40;;
22268;SDS011;11303;50.772;19.670;2023-05-18T02:59:16;25.35;;;7.18;;
22268;SDS011;11303;50.772;19.670;2023-05-18T03:01:17;19.00;;;6.57;;
22268;SDS011;11303;50.772;19.670;2023-05-18T03:03:19;23.90;;;10.27;;
22268;SDS011;11303;50.772;19.670;2023-05-18T03:05:22;20.85;;;7.25;;
22268;SDS011;11303;50.772;19.670;2023-05-18T03:07:24;20.48;;;7.43;;
22268;SDS011;11303;50.772;19.670;2023-05-18T03:09:28;18.92;;;6.35;;
22268;SDS011;11303;50.772;19.670;2023-05-18T03:11:30;16.83;;;5.78;;
22268;SDS011;11303;50.772;19.670;2023-05-18T03:13:31;17.25;;;7.30;;
22268;SDS011;11303;50.772;19.670;2023-05-18T03:15:33;25.45;;;9.38;;
22268;SDS011;11303;50.772;19.670;2023-05-18T03:17:35;22.95;;;9.02;;
22268;SDS011;11303;50.772;19.670;2023-05-18T03:19:36;27.00;;;10.23;;
22268;SDS011;11303;50.772;19.670;2023-05-18T03:21:38;18.65;;;7.63;;
22268;SDS011;11303;50.772;19.670;2023-05-18T03:23:39;18.15;;;7.30;;
22268;SDS011;11303;50.772;19.670;2023-05-18T03:25:41;18.90;;;6.65;;
22268;SDS011;11303;50.772;19.670;2023-05-18T03:27:43;19.63;;;7.25;;
22268;SDS011;11303;50.772;19.670;2023-05-18T03:29:45;22.67;;;9.45;;
22268;SDS011;11303;50.772;19.670;2023-05-18T03:31:46;21.60;;;9.80;;
22268;SDS011;11303;50.772;19.670;2023-05-18T03:33:48;23.55;;;10.70;;
22268;SDS011;11303;50.772;19.670;2023-05-18T03:35:50;22.00;;;10.48;;
22268;SDS011;11303;50.772;19.670;2023-05-18T03:37:52;22.13;;;8.45;;
22268;SDS011;11303;50.772;19.670;2023-05-18T03:39:57;21.75;;;6.00;;
22268;SDS011;11303;50.772;19.670;2023-05-18T03:42:00;31.35;;;14.27;;
22268;SDS011;11303;50.772;19.670;2023-05-18T03:44:02;21.85;;;9.55;;
22268;SDS011;11303;50.772;19.670;2023-05-18T03:46:03;19.70;;;7.18;;
22268;SDS011;11303;50.772;19.670;2023-05-18T03:48:05;20.35;;;6.68;;
22268;SDS011;11303;50.772;19.670;2023-05-18T03:50:07;21.52;;;10.40;;
22268;SDS011;11303;50.772;19.670;2023-05-18T03:52:09;18.33;;;8.32;;
22268;SDS011;11303;50.772;19.670;2023-05-18T03:54:11;17.05;;;5.72;;
22268;SDS011;11303;50.772;19.670;2023-05-18T03:56:13;18.70;;;7.57;;
22268;SDS011;11303;50.772;19.670;2023-05-18T03:58:15;21.90;;;7.45;;
22268;SDS011;11303;50.772;19.670;2023-05-18T04:00:16;18.65;;;6.40;;
22268;SDS011;11303;50.772;19.670;2023-05-18T04:02:18;23.38;;;6.10;;
22268;SDS011;11303;50.772;19.670;2023-05-18T04:04:20;24.02;;;6.53;;
22268;SDS011;11303;50.772;19.670;2023-05-18T04:06:23;15.77;;;6.63;;
22268;SDS011;11303;50.772;19.670;2023-05-18T04:08:26;23.42;;;9.05;;
22268;SDS011;11303;50.772;19.670;2023-05-18T04:10:30;16.77;;;6.50;;
22268;SDS011;11303;50.772;19.670;2023-05-18T04:12:32;25.60;;;9.07;;
22268;SDS011;11303;50.772;19.670;2023-05-18T04:14:34;18.50;;;7.55;;
22268;SDS011;11303;50.772;19.670;2023-05-18T04:16:35;18.08;;;5.00;;
22268;SDS011;11303;50.772;19.670;2023-05-18T04:18:40;17.98;;;5.57;;
22268;SDS011;11303;50.772;19.670;2023-05-18T04:20:43;16.30;;;4.93;;
22268;SDS011;11303;50.772;19.670;2023-05-18T04:22:46;27.58;;;8.63;;
22268;SDS011;11303;50.772;19.670;2023-05-18T04:24:49;31.55;;;8.57;;
22268;SDS011;11303;50.772;19.670;2023-05-18T04:26:55;18.13;;;8.32;;
22268;SDS011;11303;50.772;19.670;2023-05-18T04:28:59;30.90;;;11.88;;
22268;SDS011;11303;50.772;19.670;2023-05-18T04:31:01;21.25;;;8.02;;
22268;SDS011;11303;50.772;19.670;2023-05-18T04:33:03;19.80;;;7.05;;
22268;SDS011;11303;50.772;19.670;2023-05-18T04:35:08;17.52;;;7.22;;
22268;SDS011;11303;50.772;19.670;2023-05-18T04:37:12;24.20;;;8.40;;
22268;SDS011;11303;50.772;19.670;2023-05-18T04:39:13;14.25;;;5.85;;
22268;SDS011;11303;50.772;19.670;2023-05-18T04:41:15;7.13;;;3.05;;
22268;SDS011;11303;50.772;19.670;2023-05-18T04:43:20;24.42;;;9.15;;
22268;SDS011;11303;50.772;19.670;2023-05-18T04:45:22;22.30;;;7.55;;
22268;SDS011;11303;50.772;19.670;2023-05-18T04:47:26;6.70;;;2.65;;
22268;SDS011;11303;50.772;19.670;2023-05-18T04:49:30;16.73;;;5.40;;
22268;SDS011;11303;50.772;19.670;2023-05-18T04:51:33;15.93;;;4.97;;
22268;SDS011;11303;50.772;19.670;2023-05-18T04:53:34;14.77;;;4.70;;
22268;SDS011;11303;50.772;19.670;2023-05-18T04:55:39;16.63;;;5.95;;
22268;SDS011;11303;50.772;19.670;2023-05-18T04:57:43;23.70;;;7.82;;
22268;SDS011;11303;50.772;19.670;2023-05-18T04:59:45;15.00;;;5.68;;
22268;SDS011;11303;50.772;19.670;2023-05-18T05:01:47;16.23;;;5.57;;
22268;SDS011;11303;50.772;19.670;2023-05-18T05:03:49;22.42;;;7.97;;
22268;SDS011;11303;50.772;19.670;2023-05-18T05:05:50;26.00;;;8.57;;
22268;SDS011;11303;50.772;19.670;2023-05-18T05:07:52;27.15;;;6.35;;
22268;SDS011;11303;50.772;19.670;2023-05-18T05:09:54;23.45;;;7.30;;
22268;SDS011;11303;50.772;19.670;2023-05-18T05:11:56;20.02;;;5.70;;
22268;SDS011;11303;50.772;19.670;2023-05-18T05:13:57;16.20;;;4.45;;
22268;SDS011;11303;50.772;19.670;2023-05-18T05:15:59;17.70;;;5.20;;
22268;SDS011;11303;50.772;19.670;2023-05-18T05:18:01;15.40;;;7.15;;
22268;SDS011;11303;50.772;19.670;2023-05-18T05:20:03;23.42;;;6.45;;
22268;SDS011;11303;50.772;19.670;2023-05-18T05:22:05;24.15;;;8.70;;
22268;SDS011;11303;50.772;19.670;2023-05-18T05:24:06;29.42;;;9.13;;
22268;SDS011;11303;50.772;19.670;2023-05-18T05:26:08;16.50;;;5.03;;
22268;SDS011;11303;50.772;19.670;2023-05-18T05:28:10;19.17;;;4.47;;
22268;SDS011;11303;50.772;19.670;2023-05-18T05:30:12;21.58;;;6.03;;
22268;SDS011;11303;50.772;19.670;2023-05-18T05:32:13;13.25;;;3.10;;
22268;SDS011;11303;50.772;19.670;2023-05-18T05:34:15;8.57;;;3.28;;
22268;SDS011;11303;50.772;19.670;2023-05-18T05:36:16;17.42;;;5.80;;
22268;SDS011;11303;50.772;19.670;2023-05-18T05:38:18;9.20;;;2.97;;
22268;SDS011;11303;50.772;19.670;2023-05-18T05:40:20;10.57;;;4.15;;
22268;SDS011;11303;50.772;19.670;2023-05-18T05:42:22;10.30;;;4.28;;
22268;SDS011;11303;50.772;19.670;2023-05-18T05:44:23;7.18;;;2.70;;
22268;SDS011;11303;50.772;19.670;2023-05-18T05:46:25;13.63;;;3.40;;
22268;SDS011;11303;50.772;19.670;2023-05-18T05:48:27;19.75;;;6.18;;
22268;SDS011;11303;50.772;19.670;2023-05-18T05:50:28;12.60;;;3.13;;
22268;SDS011;11303;50.772;19.670;2023-05-18T05:52:30;9.60;;;3.33;;
22268;SDS011;11303;50.772;19.670;2023-05-18T05:54:32;11.70;;;3.92;;
22268;SDS011;11303;50.772;19.670;2023-05-18T05:56:33;12.05;;;3.20;;
22268;SDS011;11303;50.772;19.670;2023-05-18T05:58:35;12.60;;;2.85;;
22268;SDS011;11303;50.772;19.670;2023-05-18T06:00:37;12.55;;;4.93;;
22268;SDS011;11303;50.772;19.670;2023-05-18T06:02:39;15.65;;;3.92;;
22268;SDS011;11303;50.772;19.670;2023-05-18T06:04:41;10.43;;;3.53;;
22268;SDS011;11303;50.772;19.670;2023-05-18T06:06:43;7.03;;;2.80;;
22268;SDS011;11303;50.772;19.670;2023-05-18T06:08:45;10.90;;;2.80;;
22268;SDS011;11303;50.772;19.670;2023-05-18T06:10:46;10.70;;;4.32;;
22268;SDS011;11303;50.772;19.670;2023-05-18T06:12:48;9.68;;;1.88;;
22268;SDS011;11303;50.772;19.670;2023-05-18T06:14:50;14.85;;;2.20;;
22268;SDS011;11303;50.772;19.670;2023-05-18T06:16:57;12.90;;;2.35;;
22268;SDS011;11303;50.772;19.670;2023-05-18T06:18:59;14.05;;;3.60;;
22268;SDS011;11303;50.772;19.670;2023-05-18T06:21:01;6.88;;;2.55;;
22268;SDS011;11303;50.772;19.670;2023-05-18T06:23:02;7.03;;;2.30;;
22268;SDS011;11303;50.772;19.670;2023-05-18T06:25:04;14.20;;;3.53;;
22268;SDS011;11303;50.772;19.670;2023-05-18T06:27:06;20.15;;;4.60;;
22268;SDS011;11303;50.772;19.670;2023-05-18T06:29:08;12.38;;;3.00;;
22268;SDS011;11303;50.772;19.670;2023-05-18T06:31:10;14.60;;;3.85;;
22268;SDS011;11303;50.772;19.670;2023-05-18T06:33:13;7.57;;;2.78;;
22268;SDS011;11303;50.772;19.670;2023-05-18T06:35:14;7.38;;;2.42;;
22268;SDS011;11303;50.772;19.670;2023-05-18T06:37:16;13.48;;;3.15;;
22268;SDS011;11303;50.772;19.670;2023-05-18T06:39:18;5.90;;;1.52;;
22268;SDS011;11303;50.772;19.670;2023-05-18T06:41:19;10.00;;;2.58;;
22268;SDS011;11303;50.772;19.670;2023-05-18T06:43:22;5.03;;;1.42;;
22268;SDS011;11303;50.772;19.670;2023-05-18T06:45:27;10.75;;;2.17;;
22268;SDS011;11303;50.772;19.670;2023-05-18T06:47:29;8.88;;;2.80;;
22268;SDS011;11303;50.772;19.670;2023-05-18T06:49:30;8.90;;;2.60;;
22268;SDS011;11303;50.772;19.670;2023-05-18T06:51:32;6.22;;;1.85;;
22268;SDS011;11303;50.772;19.670;2023-05-18T06:53:34;10.38;;;3.72;;
22268;SDS011;11303;50.772;19.670;2023-05-18T06:55:36;7.65;;;2.42;;
22268;SDS011;11303;50.772;19.670;2023-05-18T06:57:38;9.50;;;2.35;;
22268;SDS011;11303;50.772;19.670;2023-05-18T06:59:39;5.18;;;2.45;;
22268;SDS011;11303;50.772;19.670;2023-05-18T07:01:41;6.60;;;2.17;;
22268;SDS011;11303;50.772;19.670;2023-05-18T07:03:43;6.55;;;2.75;;
22268;SDS011;11303;50.772;19.670;2023-05-18T07:05:45;6.22;;;2.13;;
22268;SDS011;11303;50.772;19.670;2023-05-18T07:07:46;16.83;;;3.97;;
22268;SDS011;11303;50.772;19.670;2023-05-18T07:09:48;8.40;;;2.15;;
22268;SDS011;11303;50.772;19.670;2023-05-18T07:11:50;13.25;;;2.67;;
22268;SDS011;11303;50.772;19.670;2023-05-18T07:13:51;10.65;;;3.08;;
22268;SDS011;11303;50.772;19.670;2023-05-18T07:15:53;9.85;;;3.60;;
22268;SDS011;11303;50.772;19.670;2023-05-18T07:17:55;9.63;;;2.28;;
22268;SDS011;11303;50.772;19.670;2023-05-18T07:19:56;12.68;;;2.13;;
22268;SDS011;11303;50.772;19.670;2023-05-18T07:21:58;10.40;;;1.85;;
22268;SDS011;11303;50.772;19.670;2023-05-18T07:24:00;7.55;;;1.83;;
22268;SDS011;11303;50.772;19.670;2023-05-18T07:26:01;5.80;;;1.50;;
22268;SDS011;11303;50.772;19.670;2023-05-18T07:28:03;7.38;;;1.73;;
22268;SDS011;11303;50.772;19.670;2023-05-18T07:30:05;7.50;;;1.80;;
22268;SDS011;11303;50.772;19.670;2023-05-18T07:32:08;6.18;;;1.65;;
22268;SDS011;11303;50.772;19.670;2023-05-18T07:34:10;10.65;;;3.13;;
22268;SDS011;11303;50.772;19.670;2023-05-18T07:36:11;5.95;;;2.30;;
22268;SDS011;11303;50.772;19.670;2023-05-18T07:38:13;4.82;;;1.52;;
22268;SDS011;11303;50.772;19.670;2023-05-18T07:40:17;4.30;;;1.67;;
22268;SDS011;11303;50.772;19.670;2023-05-18T07:42:19;6.25;;;1.70;;
22268;SDS011;11303;50.772;19.670;2023-05-18T07:44:21;8.43;;;2.10;;
22268;SDS011;11303;50.772;19.670;2023-05-18T07:46:23;14.90;;;3.83;;
22268;SDS011;11303;50.772;19.670;2023-05-18T07:48:24;7.00;;;1.92;;
22268;SDS011;11303;50.772;19.670;2023-05-18T07:50:26;5.40;;;1.60;;
22268;SDS011;11303;50.772;19.670;2023-05-18T07:52:29;8.75;;;2.20;;
22268;SDS011;11303;50.772;19.670;2023-05-18T07:54:31;7.50;;;2.30;;
22268;SDS011;11303;50.772;19.670;2023-05-18T07:56:33;6.32;;;1.30;;
22268;SDS011;11303;50.772;19.670;2023-05-18T07:58:35;11.95;;;2.22;;
22268;SDS011;11303;50.772;19.670;2023-05-18T08:00:36;8.35;;;1.15;;
22268;SDS011;11303;50.772;19.670;2023-05-18T08:02:38;5.10;;;1.88;;
22268;SDS011;11303;50.772;19.670;2023-05-18T08:04:40;7.75;;;1.75;;
22268;SDS011;11303;50.772;19.670;2023-05-18T08:06:42;12.85;;;2.38;;
22268;SDS011;11303;50.772;19.670;2023-05-18T08:08:44;9.45;;;1.80;;
22268;SDS011;11303;50.772;19.670;2023-05-18T08:10:46;7.35;;;1.40;;
22268;SDS011;11303;50.772;19.670;2023-05-18T08:12:47;12.27;;;2.47;;
22268;SDS011;11303;50.772;19.670;2023-05-18T08:14:49;5.03;;;0.90;;
22268;SDS011;11303;50.772;19.670;2023-05-18T08:16:51;9.15;;;3.05;;
22268;SDS011;11303;50.772;19.670;2023-05-18T08:18:53;9.13;;;2.50;;
22268;SDS011;11303;50.772;19.670;2023-05-18T08:20:54;8.52;;;2.25;;
22268;SDS011;11303;50.772;19.670;2023-05-18T08:22:56;8.82;;;3.08;;
22268;SDS011;11303;50.772;19.670;2023-05-18T08:24:58;6.47;;;1.88;;
22268;SDS011;11303;50.772;19.670;2023-05-18T08:27:01;15.85;;;4.30;;
22268;SDS011;11303;50.772;19.670;2023-05-18T08:29:03;20.67;;;8.80;;
22268;SDS011;11303;50.772;19.670;2023-05-18T08:31:10;13.35;;;6.68;;
22268;SDS011;11303;50.772;19.670;2023-05-18T08:33:15;12.80;;;5.60;;
22268;SDS011;11303;50.772;19.670;2023-05-18T08:35:17;13.13;;;4.82;;
22268;SDS011;11303;50.772;19.670;2023-05-18T08:37:19;10.15;;;4.10;;
22268;SDS011;11303;50.772;19.670;2023-05-18T08:39:22;7.60;;;1.95;;
22268;SDS011;11303;50.772;19.670;2023-05-18T08:41:31;7.28;;;2.20;;
22268;SDS011;11303;50.772;19.670;2023-05-18T08:43:40;15.00;;;3.47;;
22268;SDS011;11303;50.772;19.670;2023-05-18T08:45:47;9.95;;;3.53;;
22268;SDS011;11303;50.772;19.670;2023-05-18T08:47:52;11.45;;;4.40;;
22268;SDS011;11303;50.772;19.670;2023-05-18T08:49:56;11.85;;;4.13;;
22268;SDS011;11303;50.772;19.670;2023-05-18T08:52:02;12.30;;;2.88;;
22268;SDS011;11303;50.772;19.670;2023-05-18T08:54:05;8.45;;;2.70;;
22268;SDS011;11303;50.772;19.670;2023-05-18T08:56:08;7.90;;;2.65;;
22268;SDS011;11303;50.772;19.670;2023-05-18T08:58:11;8.40;;;2.78;;
22268;SDS011;11303;50.772;19.670;2023-05-18T09:00:17;8.35;;;1.90;;
22268;SDS011;11303;50.772;19.670;2023-05-18T09:02:19;4.57;;;1.55;;
22268;SDS011;11303;50.772;19.670;2023-05-18T09:04:21;8.27;;;1.83;;
22268;SDS011;11303;50.772;19.670;2023-05-18T09:06:24;8.93;;;2.50;;
22268;SDS011;11303;50.772;19.670;2023-05-18T09:08:27;8.30;;;1.75;;
22268;SDS011;11303;50.772;19.670;2023-05-18T09:10:29;4.88;;;2.20;;
22268;SDS011;11303;50.772;19.670;2023-05-18T09:12:33;5.90;;;2.08;;
22268;SDS011;11303;50.772;19.670;2023-05-18T09:14:35;5.32;;;2.03;;
22268;SDS011;11303;50.772;19.670;2023-05-18T09:16:37;9.30;;;2.33;;
22268;SDS011;11303;50.772;19.670;2023-05-18T09:18:39;9.98;;;2.00;;
22268;SDS011;11303;50.772;19.670;2023-05-18T09:20:41;6.88;;;2.17;;
22268;SDS011;11303;50.772;19.670;2023-05-18T09:22:42;11.13;;;3.45;;
22268;SDS011;11303;50.772;19.670;2023-05-18T09:24:44;19.73;;;7.05;;
22268;SDS011;11303;50.772;19.670;2023-05-18T09:26:46;0.90;;;0.70;;
22268;SDS011;11303;50.772;19.670;2023-05-18T09:28:52;6.93;;;2.00;;
22268;SDS011;11303;50.772;19.670;2023-05-18T09:30:54;21.40;;;5.35;;
22268;SDS011;11303;50.772;19.670;2023-05-18T09:32:56;21.10;;;5.53;;
22268;SDS011;11303;50.772;19.670;2023-05-18T09:35:02;14.43;;;4.45;;
22268;SDS011;11303;50.772;19.670;2023-05-18T09:37:05;7.18;;;2.38;;
22268;SDS011;11303;50.772;19.670;2023-05-18T09:39:09;10.23;;;3.47;;
22268;SDS011;11303;50.772;19.670;2023-05-18T09:41:12;8.02;;;2.13;;
22268;SDS011;11303;50.772;19.670;2023-05-18T09:43:17;12.13;;;4.53;;
22268;SDS011;11303;50.772;19.670;2023-05-18T09:45:20;10.10;;;2.53;;
22268;SDS011;11303;50.772;19.670;2023-05-18T09:47:29;6.63;;;1.75;;
22268;SDS011;11303;50.772;19.670;2023-05-18T09:49:30;4.30;;;1.40;;
22268;SDS011;11303;50.772;19.670;2023-05-18T09:51:38;4.70;;;1.67;;
22268;SDS011;11303;50.772;19.670;2023-05-18T09:53:41;7.00;;;1.83;;
22268;SDS011;11303;50.772;19.670;2023-05-18T09:55:44;6.95;;;2.10;;
22268;SDS011;11303;50.772;19.670;2023-05-18T09:57:48;5.85;;;1.60;;
22268;SDS011;11303;50.772;19.670;2023-05-18T10:00:02;6.93;;;1.50;;
22268;SDS011;11303;50.772;19.670;2023-05-18T10:02:10;4.70;;;3.10;;
22268;SDS011;11303;50.772;19.670;2023-05-18T10:04:13;3.67;;;1.30;;
22268;SDS011;11303;50.772;19.670;2023-05-18T10:06:15;3.95;;;1.45;;
22268;SDS011;11303;50.772;19.670;2023-05-18T10:08:21;3.53;;;1.40;;
22268;SDS011;11303;50.772;19.670;2023-05-18T10:10:26;6.80;;;1.60;;
22268;SDS011;11303;50.772;19.670;2023-05-18T10:12:30;4.68;;;1.60;;
22268;SDS011;11303;50.772;19.670;2023-05-18T10:14:32;4.65;;;1.48;;
22268;SDS011;11303;50.772;19.670;2023-05-18T10:16:39;3.97;;;1.50;;
22268;SDS011;11303;50.772;19.670;2023-05-18T10:18:41;13.35;;;3.08;;
22268;SDS011;11303;50.772;19.670;2023-05-18T10:20:43;7.07;;;2.13;;
22268;SDS011;11303;50.772;19.670;2023-05-18T10:22:47;7.53;;;2.35;;
22268;SDS011;11303;50.772;19.670;2023-05-18T10:24:50;7.70;;;2.05;;
22268;SDS011;11303;50.772;19.670;2023-05-18T10:26:55;7.45;;;1.80;;
22268;SDS011;11303;50.772;19.670;2023-05-18T10:29:04;4.38;;;1.50;;
22268;SDS011;11303;50.772;19.670;2023-05-18T10:31:08;9.25;;;3.10;;
22268;SDS011;11303;50.772;19.670;2023-05-18T10:33:10;12.77;;;3.97;;
22268;SDS011;11303;50.772;19.670;2023-05-18T10:35:29;22.67;;;8.27;;
22268;SDS011;11303;50.772;19.670;2023-05-18T10:37:32;19.13;;;8.05;;
22268;SDS011;11303;50.772;19.670;2023-05-18T10:39:38;12.68;;;4.90;;
22268;SDS011;11303;50.772;19.670;2023-05-18T10:41:42;7.20;;;2.63;;
22268;SDS011;11303;50.772;19.670;2023-05-18T10:43:45;5.35;;;1.50;;
22268;SDS011;11303;50.772;19.670;2023-05-18T10:46:00;7.38;;;2.05;;
22268;SDS011;11303;50.772;19.670;2023-05-18T10:48:03;7.72;;;3.05;;
22268;SDS011;11303;50.772;19.670;2023-05-18T10:50:06;5.53;;;2.17;;
22268;SDS011;11303;50.772;19.670;2023-05-18T10:52:09;5.32;;;1.90;;
22268;SDS011;11303;50.772;19.670;2023-05-18T10:54:12;8.95;;;2.72;;
22268;SDS011;11303;50.772;19.670;2023-05-18T10:56:20;7.97;;;1.77;;
22268;SDS011;11303;50.772;19.670;2023-05-18T10:58:26;7.13;;;1.45;;
22268;SDS011;11303;50.772;19.670;2023-05-18T11:00:30;6.95;;;1.90;;
22268;SDS011;11303;50.772;19.670;2023-05-18T11:02:38;5.68;;;1.80;;
22268;SDS011;11303;50.772;19.670;2023-05-18T11:04:44;7.38;;;2.00;;
22268;SDS011;11303;50.772;19.670;2023-05-18T11:06:56;6.75;;;2.03;;
22268;SDS011;11303;50.772;19.670;2023-05-18T11:08:59;3.85;;;1.80;;
22268;SDS011;11303;50.772;19.670;2023-05-18T11:11:03;6.68;;;2.42;;
22268;SDS011;11303;50.772;19.670;2023-05-18T11:13:08;6.72;;;2.85;;
22268;SDS011;11303;50.772;19.670;2023-05-18T11:15:13;10.38;;;3.83;;
22268;SDS011;11303;50.772;19.670;2023-05-18T11:17:24;4.55;;;2.08;;
22268;SDS011;11303;50.772;19.670;2023-05-18T11:19:26;6.97;;;1.67;;
22268;SDS011;11303;50.772;19.670;2023-05-18T11:23:36;5.28;;;1.30;;
22268;SDS011;11303;50.772;19.670;2023-05-18T11:25:39;5.03;;;1.80;;
22268;SDS011;11303;50.772;19.670;2023-05-18T11:27:43;7.38;;;1.73;;
22268;SDS011;11303;50.772;19.670;2023-05-18T11:29:45;3.88;;;1.70;;
22268;SDS011;11303;50.772;19.670;2023-05-18T11:31:48;4.22;;;1.75;;
22268;SDS011;11303;50.772;19.670;2023-05-18T11:33:52;3.35;;;1.38;;
22268;SDS011;11303;50.772;19.670;2023-05-18T11:38:06;6.90;;;1.35;;
22268;SDS011;11303;50.772;19.670;2023-05-18T11:40:09;6.13;;;1.02;;
22268;SDS011;11303;50.772;19.670;2023-05-18T11:42:12;4.88;;;1.55;;
22268;SDS011;11303;50.772;19.670;2023-05-18T11:44:15;6.72;;;1.50;;
22268;SDS011;11303;50.772;19.670;2023-05-18T11:46:18;5.32;;;1.73;;
22268;SDS011;11303;50.772;19.670;2023-05-18T11:48:24;7.47;;;1.77;;
22268;SDS011;11303;50.772;19.670;2023-05-18T11:50:29;2.53;;;1.02;;
22268;SDS011;11303;50.772;19.670;2023-05-18T11:52:31;4.00;;;1.40;;
22268;SDS011;11303;50.772;19.670;2023-05-18T11:54:40;6.15;;;1.95;;
22268;SDS011;11303;50.772;19.670;2023-05-18T11:56:51;3.17;;;1.92;;
22268;SDS011;11303;50.772;19.670;2023-05-18T11:59:12;3.80;;;1.70;;
22268;SDS011;11303;50.772;19.670;2023-05-18T12:01:14;3.10;;;1.25;;
22268;SDS011;11303;50.772;19.670;2023-05-18T12:03:16;6.00;;;1.77;;
22268;SDS011;11303;50.772;19.670;2023-05-18T12:05:23;8.23;;;1.55;;
22268;SDS011;11303;50.772;19.670;2023-05-18T12:07:25;2.92;;;1.65;;
22268;SDS011;11303;50.772;19.670;2023-05-18T12:09:29;3.80;;;1.23;;
22268;SDS011;11303;50.772;19.670;2023-05-18T12:11:32;3.55;;;1.15;;
22268;SDS011;11303;50.772;19.670;2023-05-18T12:13:33;2.97;;;1.20;;